METAR Data
IDs: Format: Raw Decoded Include TAF

Data at: 0619 UTC 01 Aug 2021

EKVD 010550Z AUTO 25008KT //// ///////// 15/12 Q1004